Furenas — OZ2085 — position and weather

sailwx.info

Track history (hours):
 
Tides and Currents Weather Stations Pressure Air Temp Water Temp Dewpoint Dewpoint Depression Visibility Wind Speed Wind Dir Waves Ship Positions

Furenas

Last reported at 2014-Sep-16 18:33 UTC. Time now 2014-Sep-16 19:30 UTC.
Position N 52°27' E 004°07'.

Length 137 m; draft 8 m.

Type: Tanker. MMSI: 231734000.

Date/timePositionNaut miles runAvg speedWind from/ knotsBaromVisibWave heightAir tempDewpointWater temp
2014-Sep-16 18:33N 52°27' E 004°07'0 0.1
2014-Sep-16 17:33N 52°27' E 004°07'0 0.0
2014-Sep-16 16:33N 52°27' E 004°07'0 0.0
2014-Sep-16 15:33N 52°27' E 004°07'7 6.9
2014-Sep-16 14:33N 52°27' E 003°55'1111.4
2014-Sep-16 13:34N 52°23' E 003°38'1211.6
2014-Sep-16 12:33N 52°15' E 003°23'1111.3
2014-Sep-16 11:33N 52°09' E 003°08'2311.6
2014-Sep-16 09:33N 51°51' E 002°45'1312.6
2014-Sep-16 08:33N 51°41' E 002°31'1313.3
2014-Sep-16 07:33N 51°31' E 002°18'1312.6
2014-Sep-16 06:33N 51°20' E 002°08'1212.1
2014-Sep-16 05:34N 51°11' E 001°56'1312.7
2014-Sep-16 04:33N 51°02' E 001°41'1212.4
2014-Sep-16 03:33N 50°52' E 001°28'3012.0
2014-Sep-16 01:06N 50°29' E 000°59'712.1
2014-Sep-16 00:29N 50°27' E 000°48'1112.3
2014-Sep-15 23:33N 50°24' E 000°31'270 6.7
2014-Sep-14 07:08N 53°30' W 004°46'913.1
2014-Sep-14 06:28N 53°34' W 004°32'2914.1
2014-Sep-14 04:23N 53°33' W 003°43'  
2014-Sep-12 00:18N 53°32' W 003°11'7 9.1
2014-Sep-11 23:33N 53°30' W 003°22'3 2.8
2014-Sep-11 22:33N 53°29' W 003°27'0 0.1
2014-Sep-11 21:27N 53°29' W 003°27'0 0.0
2014-Sep-11 20:34N 53°29' W 003°27'0 0.1
2014-Sep-11 19:33N 53°29' W 003°27'0 0.1
2014-Sep-11 18:12N 53°29' W 003°27'0 0.0
2014-Sep-11 17:18N 53°29' W 003°27'0 0.0
2014-Sep-11 16:23N 53°29' W 003°27'2 2.4
2014-Sep-11 15:33N 53°30' W 003°30'1111.1
2014-Sep-11 14:34N 53°32' W 003°49'1212.0
2014-Sep-11 13:33N 53°39' W 004°05'1212.3
2014-Sep-11 12:32N 53°46' W 004°22'3411.6
2014-Sep-11 09:33N 54°13' W 004°59'1212.2
2014-Sep-11 08:33N 54°25' W 005°06'1312.6
2014-Sep-11 07:33N 54°37' W 005°11'1312.7
2014-Sep-11 06:33N 54°49' W 005°16'1212.1
2014-Sep-11 05:33N 55°01' W 005°21'1211.7
2014-Sep-11 04:33N 55°12' W 005°16'1211.9
2014-Sep-11 03:33N 55°22' W 005°05'1211.4
2014-Sep-11 02:32N 55°33' W 004°58'1212.1
2014-Sep-11 01:34N 55°45' W 004°59'1313.3
2014-Sep-11 00:33N 55°58' W 004°51'1111.2
2014-Sep-10 23:33N 55°56' W 004°32'5 4.8
2014-Sep-10 22:33N 55°54' W 004°24'0 0.0
2014-Sep-10 21:33N 55°54' W 004°24'0 0.0
2014-Sep-10 20:33N 55°54' W 004°24'0 0.0
2014-Sep-10 19:33N 55°54' W 004°24'0 0.0
2014-Sep-10 18:33N 55°54' W 004°24'0 0.0
2014-Sep-10 17:33N 55°54' W 004°24'0 0.0
2014-Sep-10 02:15N 55°54' W 004°24'0 0.0
2014-Sep-10 01:33N 55°54' W 004°24'0 0.0
2014-Sep-10 00:33N 55°54' W 004°24'3 3.4
2014-Sep-09 23:33N 55°56' W 004°29'7 7.4
2014-Sep-09 22:33N 55°56' W 004°42'8 8.3
2014-Sep-09 21:33N 55°53' W 004°56'1312.3
2014-Sep-09 20:31N 55°41' W 005°01'7 1.1
2014-Sep-09 14:30N 55°34' W 005°02'2310.5
2014-Sep-09 12:20N 55°15' W 005°23'911.7
2014-Sep-09 11:32N 55°14' W 005°40'1111.4
2014-Sep-09 10:33N 55°15' W 005°59'1211.7
2014-Sep-09 09:34N 55°22' W 006°16'1313.0
2014-Sep-09 08:33N 55°30' W 006°34'1414.1
2014-Sep-09 07:33N 55°39' W 006°53'15211.4
2014-Sep-08 18:11N 58°08' W 006°03'812.0
2014-Sep-08 17:32N 58°14' W 005°53'5811.2
2014-Sep-08 12:22N 58°42' W 004°16'1012.5
2014-Sep-08 11:33N 58°43' W 003°57'1212.0
2014-Sep-08 10:33N 58°43' W 003°34'1310.5
2014-Sep-08 09:20N 58°43' W 003°09'6 7.7
2014-Sep-08 08:33N 58°43' W 002°58'37111.8
2014-Sep-07 01:05N 57°54' E 008°43'5611.9
2014-Sep-06 20:23N 58°08' E 010°25'1011.7
2014-Sep-06 19:33N 58°11' E 010°43'  
Track history (hours):
 
Tides and Currents Weather Stations Pressure Air Temp Water Temp Dewpoint Dewpoint Depression Visibility Wind Speed Wind Dir Waves Ship Positions

Furenas

Last reported at 2014-Sep-16 18:33 UTC. Time now 2014-Sep-16 19:30 UTC.
Position N 52°27' E 004°07'.

Length 137 m; draft 8 m.

Type: Tanker. MMSI: 231734000.

Date/timePositionNaut miles runAvg speedWind from/ knotsBaromVisibWave heightAir tempDewpointWater temp
2014-Sep-16 18:33N 52°27' E 004°07'0 0.1
2014-Sep-16 17:33N 52°27' E 004°07'0 0.0
2014-Sep-16 16:33N 52°27' E 004°07'0 0.0
2014-Sep-16 15:33N 52°27' E 004°07'7 6.9
2014-Sep-16 14:33N 52°27' E 003°55'1111.4
2014-Sep-16 13:34N 52°23' E 003°38'1211.6
2014-Sep-16 12:33N 52°15' E 003°23'1111.3
2014-Sep-16 11:33N 52°09' E 003°08'2311.6
2014-Sep-16 09:33N 51°51' E 002°45'1312.6
2014-Sep-16 08:33N 51°41' E 002°31'1313.3
2014-Sep-16 07:33N 51°31' E 002°18'1312.6
2014-Sep-16 06:33N 51°20' E 002°08'1212.1
2014-Sep-16 05:34N 51°11' E 001°56'1312.7
2014-Sep-16 04:33N 51°02' E 001°41'1212.4
2014-Sep-16 03:33N 50°52' E 001°28'3012.0
2014-Sep-16 01:06N 50°29' E 000°59'712.1
2014-Sep-16 00:29N 50°27' E 000°48'1112.3
2014-Sep-15 23:33N 50°24' E 000°31'270 6.7
2014-Sep-14 07:08N 53°30' W 004°46'913.1
2014-Sep-14 06:28N 53°34' W 004°32'2914.1
2014-Sep-14 04:23N 53°33' W 003°43'  
2014-Sep-12 00:18N 53°32' W 003°11'7 9.1
2014-Sep-11 23:33N 53°30' W 003°22'3 2.8
2014-Sep-11 22:33N 53°29' W 003°27'0 0.1
2014-Sep-11 21:27N 53°29' W 003°27'0 0.0
2014-Sep-11 20:34N 53°29' W 003°27'0 0.1
2014-Sep-11 19:33N 53°29' W 003°27'0 0.1
2014-Sep-11 18:12N 53°29' W 003°27'0 0.0
2014-Sep-11 17:18N 53°29' W 003°27'0 0.0
2014-Sep-11 16:23N 53°29' W 003°27'2 2.4
2014-Sep-11 15:33N 53°30' W 003°30'1111.1
2014-Sep-11 14:34N 53°32' W 003°49'1212.0
2014-Sep-11 13:33N 53°39' W 004°05'1212.3
2014-Sep-11 12:32N 53°46' W 004°22'3411.6
2014-Sep-11 09:33N 54°13' W 004°59'1212.2
2014-Sep-11 08:33N 54°25' W 005°06'1312.6
2014-Sep-11 07:33N 54°37' W 005°11'1312.7
2014-Sep-11 06:33N 54°49' W 005°16'1212.1
2014-Sep-11 05:33N 55°01' W 005°21'1211.7
2014-Sep-11 04:33N 55°12' W 005°16'1211.9
2014-Sep-11 03:33N 55°22' W 005°05'1211.4
2014-Sep-11 02:32N 55°33' W 004°58'1212.1
2014-Sep-11 01:34N 55°45' W 004°59'1313.3
2014-Sep-11 00:33N 55°58' W 004°51'1111.2
2014-Sep-10 23:33N 55°56' W 004°32'5 4.8
2014-Sep-10 22:33N 55°54' W 004°24'0 0.0
2014-Sep-10 21:33N 55°54' W 004°24'0 0.0
2014-Sep-10 20:33N 55°54' W 004°24'0 0.0
2014-Sep-10 19:33N 55°54' W 004°24'0 0.0
2014-Sep-10 18:33N 55°54' W 004°24'0 0.0
2014-Sep-10 17:33N 55°54' W 004°24'0 0.0
2014-Sep-10 02:15N 55°54' W 004°24'0 0.0
2014-Sep-10 01:33N 55°54' W 004°24'0 0.0
2014-Sep-10 00:33N 55°54' W 004°24'3 3.4
2014-Sep-09 23:33N 55°56' W 004°29'7 7.4
2014-Sep-09 22:33N 55°56' W 004°42'8 8.3
2014-Sep-09 21:33N 55°53' W 004°56'1312.3
2014-Sep-09 20:31N 55°41' W 005°01'7 1.1
2014-Sep-09 14:30N 55°34' W 005°02'2310.5
2014-Sep-09 12:20N 55°15' W 005°23'911.7
2014-Sep-09 11:32N 55°14' W 005°40'1111.4
2014-Sep-09 10:33N 55°15' W 005°59'1211.7
2014-Sep-09 09:34N 55°22' W 006°16'1313.0
2014-Sep-09 08:33N 55°30' W 006°34'1414.1
2014-Sep-09 07:33N 55°39' W 006°53'15211.4
2014-Sep-08 18:11N 58°08' W 006°03'812.0
2014-Sep-08 17:32N 58°14' W 005°53'5811.2
2014-Sep-08 12:22N 58°42' W 004°16'1012.5
2014-Sep-08 11:33N 58°43' W 003°57'1212.0
2014-Sep-08 10:33N 58°43' W 003°34'1310.5
2014-Sep-08 09:20N 58°43' W 003°09'6 7.7
2014-Sep-08 08:33N 58°43' W 002°58'37111.8
2014-Sep-07 01:05N 57°54' E 008°43'5611.9
2014-Sep-06 20:23N 58°08' E 010°25'1011.7
2014-Sep-06 19:33N 58°11' E 010°43'  

Dump ship's entire track history